Aeroporto :
LOGIN :

Iscrizione | Disclaimer

   EN    FR    IT 

 










Sommario :    VFR   VFR Marginale   IFR   IFR Intensivo   IFR Molto Intensivo
Visibilità : 
Base nubi : 
>= 8 km
>= 3000ft
5 / 8 km
1000 / 3000 ft
1500m / 5 km
500 / 1000 ft
800 / 1500m
200 / 500 ft
< 800m
< 200 ft
Simboli :   Temporali  Nebbia  Neve Forte  Precipitazioni Forti  Vento > 20 kt
SIGMETs :   Varie  Temporali  Ghiacco  Turbolenza  Onda orograficha  Ceneri Vulcaniche






- Altitudine del aeroporto : 250 ft


LERI - Alcantarilla

ULTIMO METAR :
  • 181030Z VRB01KT 9999 FEW010 SCT040 20/18 Q1018 RERA NOSIG

METARs OBSOLETI :
  • 181000Z 33003KT 300V010 9999 -RA FEW010 SCT040 20/18 Q1018 NOSIG
  • 180930Z 01003KT 9999 -RA FEW010 SCT040 20/18 Q1018 NOSIG
  • 180900Z VRB01KT 9999 -RA FEW010 SCT060 20/18 Q1017 NOSIG
  • 180830Z 15002KT 9999 FEW010 SCT060 20/18 Q1017 NOSIG
  • 180800Z VRB02KT 9999 FEW010 SCT060 19/18 Q1017 NOSIG
  • 180730Z VRB01KT 9999 FEW010 SCT060 19/18 Q1016 NOSIG

TAF TAF LERI
Valido dal 18 a 09 ore il 19 a 09 ore UTC


180800Z 1809/1909 34006KT 9999 SCT030 TX32/1815Z TN19/1906Z
PROB40
TEMPO 1809/1818 4000 SHRA FEW020TCU BKN040
PROB30
TEMPO 1809/1818 3000 TSRA SCT020CB BKN035
BECMG 1812/1814 06010KT
BECMG 1820/1822 35008KT



MetMap, La meteo Aeronautica in un colpo d'occhio ! - Copyright ORBIFLY Dicembre 2007 - Disclaimer

ORBIFLY MET'MAP TEAM :

Programmazione e sviluppo : Alexandra Zaïnal
Concezione : Baudouin d'Aumeries
Aiuto per la programmazione : Marc-Olivier Méhu
Supporto tecnico e logistico : Manuel Goepfert
Aiuto per la traduzione : Arnaldo La Scala

Contatto : metmap@orbifly.com




FONTI E CREDITI :

   NOAA